Time;durP1;ratioP1;P1;durP2;ratioP2;P2;SDS_P1;SDS_P2;PMS_P1;PMS_P2;Temp;Humidity;BMP_temperature;BMP_pressure;BME280_temperature;BME280_humidity;BME280_pressure;Samples;Min_cycle;Max_cycle;Signal;HPM_P1;HPM_P2
2021/11/05 00:00:27;;;;;;;98.63;34.78;;;;;;;6.42;100.00;100921.03;5022148;28;20034;-87
2021/11/05 00:02:54;;;;;;;110.53;34.33;;;;;;;6.40;100.00;100928.31;4976329;28;20371;-87
2021/11/05 00:05:23;;;;;;;116.10;37.47;;;;;;;6.44;100.00;100929.72;5002831;28;20128;-87
2021/11/05 00:07:55;;;;;;;117.57;39.67;;;;;;;6.46;100.00;100927.78;4994207;28;20041;-87
2021/11/05 00:10:29;;;;;;;106.80;37.58;;;;;;;6.47;100.00;100918.78;4982585;28;20031;-87
2021/11/05 00:12:54;;;;;;;112.38;36.50;;;;;;;6.46;100.00;100931.28;4975470;28;20059;-87
2021/11/05 00:15:22;;;;;;;104.78;34.63;;;;;;;6.47;100.00;100930.31;4978887;28;20042;-86
2021/11/05 00:17:48;;;;;;;119.25;41.60;;;;;;;6.49;100.00;100928.34;4997168;28;20047;-87
2021/11/05 00:20:15;;;;;;;117.90;35.78;;;;;;;6.49;100.00;100924.84;4982133;28;20126;-86
2021/11/05 00:22:46;;;;;;;118.57;40.30;;;;;;;6.50;100.00;100935.38;4983166;28;20034;-86
2021/11/05 00:25:15;;;;;;;108.45;33.45;;;;;;;6.49;100.00;100939.00;4994284;28;20495;-87
2021/11/05 00:27:42;;;;;;;107.03;32.17;;;;;;;6.50;100.00;100935.38;4985692;28;20403;-86
2021/11/05 00:30:11;;;;;;;113.05;40.53;;;;;;;6.51;100.00;100944.22;4986815;28;20038;-86
2021/11/05 00:32:38;;;;;;;110.85;34.13;;;;;;;6.51;100.00;100944.22;5011231;28;20161;-87
2021/11/05 00:35:15;;;;;;;124.10;37.38;;;;;;;6.49;100.00;100944.34;4977177;28;20042;-86
2021/11/05 00:37:43;;;;;;;123.03;40.42;;;;;;;6.49;100.00;100955.00;5007749;28;20043;-86
2021/11/05 00:40:10;;;;;;;111.40;39.90;;;;;;;6.52;100.00;100949.41;4979745;28;20038;-87
2021/11/05 00:42:47;;;;;;;111.30;35.92;;;;;;;6.52;100.00;100957.41;4995296;28;20038;-87
2021/11/05 00:45:23;;;;;;;110.40;36.55;;;;;;;6.53;100.00;100961.78;4986225;28;20598;-86
2021/11/05 00:47:51;;;;;;;112.43;39.88;;;;;;;6.51;100.00;100963.72;4975448;28;20084;-87
2021/11/05 00:50:18;;;;;;;95.35;32.47;;;;;;;6.48;100.00;100972.00;4982243;28;20030;-87
2021/11/05 00:52:46;;;;;;;86.88;28.70;;;;;;;6.46;100.00;100965.09;4986261;28;20073;-87
2021/11/05 00:55:16;;;;;;;84.38;34.97;;;;;;;6.46;100.00;100963.28;4978741;28;20038;-86
2021/11/05 00:57:46;;;;;;;88.88;32.85;;;;;;;6.49;100.00;100976.34;4985189;28;20545;-87
2021/11/05 01:00:15;;;;;;;88.13;34.92;;;;;;;6.48;100.00;100966.66;4969412;28;20042;-87
2021/11/05 01:02:42;;;;;;;73.55;27.85;;;;;;;6.43;100.00;100970.69;4982857;28;20283;-86
2021/11/05 01:05:13;;;;;;;95.80;36.45;;;;;;;6.45;100.00;100971.41;4980003;28;20034;-86
2021/11/05 01:07:41;;;;;;;97.60;32.38;;;;;;;6.45;100.00;100976.75;4978985;28;20039;-86
2021/11/05 01:10:08;;;;;;;93.78;32.35;;;;;;;6.42;100.00;100980.53;4976486;28;20049;-86
2021/11/05 01:12:36;;;;;;;88.20;29.88;;;;;;;6.34;100.00;100983.00;5011036;28;20498;-86
2021/11/05 01:15:01;;;;;;;83.03;29.45;;;;;;;6.33;100.00;100981.31;4983879;28;20502;-87
2021/11/05 01:17:30;;;;;;;81.07;30.48;;;;;;;6.28;100.00;100989.69;5008856;28;20047;-87
2021/11/05 01:19:56;;;;;;;83.22;29.55;;;;;;;6.29;100.00;100993.19;4993698;28;20058;-87
2021/11/05 01:22:23;;;;;;;81.53;31.83;;;;;;;6.27;100.00;101004.00;4991987;28;20067;-87
2021/11/05 01:24:50;;;;;;;75.40;30.80;;;;;;;6.31;100.00;101010.75;4963936;28;20078;-86
2021/11/05 01:27:22;;;;;;;71.43;27.83;;;;;;;6.26;100.00;101006.78;4991032;28;20109;-86
2021/11/05 01:29:52;;;;;;;77.63;30.75;;;;;;;6.27;100.00;101009.34;4983202;28;20442;-86
2021/11/05 01:32:18;;;;;;;86.38;32.72;;;;;;;6.29;100.00;101015.38;4991195;28;20042;-86
2021/11/05 01:34:50;;;;;;;75.47;31.17;;;;;;;6.26;100.00;101022.78;4952329;28;20137;-86
2021/11/05 01:37:15;;;;;;;83.40;29.55;;;;;;;6.17;100.00;101024.41;4981177;28;20070;-86
2021/11/05 01:39:52;;;;;;;83.10;30.83;;;;;;;6.21;100.00;101025.00;4990990;28;20515;-86
2021/11/05 01:42:17;;;;;;;80.53;28.73;;;;;;;6.15;100.00;101037.00;4964020;28;20042;-86
2021/11/05 01:44:50;;;;;;;81.18;27.60;;;;;;;6.07;100.00;101029.69;4959544;28;20377;-87
2021/11/05 01:47:23;;;;;;;87.72;31.77;;;;;;;6.12;100.00;101041.75;4963875;28;20045;-86
2021/11/05 01:49:50;;;;;;;83.80;29.77;;;;;;;6.09;100.00;101042.88;4963581;28;20086;-86
2021/11/05 01:52:18;;;;;;;83.03;31.02;;;;;;;6.12;100.00;101031.94;4963713;28;20050;-86
2021/11/05 01:54:44;;;;;;;96.05;34.67;;;;;;;6.15;100.00;101038.84;4967346;28;20066;-87
2021/11/05 01:57:11;;;;;;;103.38;28.65;;;;;;;6.02;100.00;101041.69;4963421;28;20042;-86
2021/11/05 01:59:38;;;;;;;104.55;29.33;;;;;;;5.94;100.00;101044.16;4939806;28;20094;-87
2021/11/05 02:02:08;;;;;;;131.27;33.17;;;;;;;5.98;100.00;101045.56;4979057;28;20373;-86
2021/11/05 02:04:48;;;;;;;118.38;29.35;;;;;;;5.93;100.00;101045.06;4986003;28;20121;-87
2021/11/05 02:07:21;;;;;;;107.88;29.92;;;;;;;5.91;100.00;101047.06;4993172;28;20038;-87
2021/11/05 02:09:58;;;;;;;95.43;31.45;;;;;;;5.94;100.00;101054.81;4986966;28;20046;-87
2021/11/05 02:12:23;;;;;;;117.82;35.13;;;;;;;5.89;100.00;101061.31;4982151;28;20034;-86
2021/11/05 02:14:51;;;;;;;121.60;31.35;;;;;;;5.92;100.00;101062.88;4991637;28;20051;-86
2021/11/05 02:17:24;;;;;;;96.13;26.33;;;;;;;5.82;100.00;101053.97;4996751;28;20034;-86
2021/11/05 02:19:51;;;;;;;119.68;29.27;;;;;;;5.77;100.00;101059.69;4997154;28;20038;-87
2021/11/05 02:22:16;;;;;;;103.93;25.83;;;;;;;5.73;100.00;101065.41;4993297;28;20390;-86
2021/11/05 02:24:50;;;;;;;102.22;24.73;;;;;;;5.71;100.00;101080.66;5000463;28;20047;-86
2021/11/05 02:27:17;;;;;;;118.63;29.92;;;;;;;5.72;100.00;101077.00;4986184;28;20070;-86
2021/11/05 02:29:43;;;;;;;157.07;34.20;;;;;;;5.75;100.00;101074.09;4995642;28;20447;-86
2021/11/05 02:32:12;;;;;;;125.63;33.42;;;;;;;5.78;100.00;101076.50;5005214;28;20045;-86
2021/11/05 02:34:44;;;;;;;91.77;29.17;;;;;;;5.72;100.00;101083.16;4971897;28;20042;-86
2021/11/05 02:37:21;;;;;;;96.72;27.20;;;;;;;5.61;100.00;101081.41;4989306;28;20042;-86
2021/11/05 02:39:49;;;;;;;78.88;23.95;;;;;;;5.55;100.00;101086.38;4985017;28;20031;-87
2021/11/05 02:42:20;;;;;;;101.25;30.75;;;;;;;5.60;100.00;101085.03;4985096;28;20411;-86
2021/11/05 02:44:48;;;;;;;97.10;28.48;;;;;;;5.63;100.00;101098.09;4978456;28;20069;-86
2021/11/05 02:47:31;;;;;;;131.77;30.80;;;;;;;5.61;100.00;101089.41;4981844;28;20675;-86
2021/11/05 02:50:13;;;;;;;119.45;29.73;;;;;;;5.60;100.00;101090.34;4976295;28;20105;-87
2021/11/05 02:52:50;;;;;;;109.35;28.35;;;;;;;5.59;100.00;101093.16;4991417;28;20038;-86
2021/11/05 02:55:18;;;;;;;110.28;28.77;;;;;;;5.63;100.00;101099.91;4965514;28;20051;-87
2021/11/05 02:57:44;;;;;;;118.80;31.77;;;;;;;5.62;100.00;101103.56;4989444;28;20040;-87
2021/11/05 03:00:13;;;;;;;89.50;24.05;;;;;;;5.54;100.00;101101.50;4966546;28;20035;-87
2021/11/05 03:02:39;;;;;;;;;;;;;;;5.58;100.00;101107.41;4977068;28;20039;-88
2021/11/05 03:05:12;;;;;;;109.32;25.95;;;;;;;5.48;100.00;101114.47;4981516;28;20004;-85
2021/11/05 03:07:44;;;;;;;113.82;34.15;;;;;;;5.52;100.00;101114.06;4971827;28;20125;-86
2021/11/05 03:10:14;;;;;;;148.68;32.05;;;;;;;5.53;100.00;101121.13;4985000;28;20054;-86
2021/11/05 03:12:40;;;;;;;129.50;30.25;;;;;;;5.52;100.00;101115.91;4984106;28;20030;-87
2021/11/05 03:15:09;;;;;;;125.10;28.50;;;;;;;5.52;100.00;101119.41;4986194;28;20054;-87
2021/11/05 03:17:37;;;;;;;108.65;27.90;;;;;;;5.55;100.00;101118.31;5001963;28;20457;-86
2021/11/05 03:20:07;;;;;;;123.93;33.43;;;;;;;5.57;100.00;101127.88;4984811;28;20398;-86
2021/11/05 03:22:35;;;;;;;113.55;34.45;;;;;;;5.59;100.00;101133.09;4978688;28;20066;-87
2021/11/05 03:25:02;;;;;;;140.70;34.42;;;;;;;5.57;100.00;101137.69;4968155;28;20219;-86
2021/11/05 03:27:30;;;;;;;125.15;32.70;;;;;;;5.62;100.00;101138.16;4963567;28;20098;-86
2021/11/05 03:30:05;;;;;;;113.28;31.42;;;;;;;5.56;100.00;101138.66;4983188;28;20514;-86
2021/11/05 03:32:32;;;;;;;106.97;27.00;;;;;;;5.55;100.00;101139.59;4989436;28;20058;-86
2021/11/05 03:34:58;;;;;;;95.63;26.35;;;;;;;5.49;100.00;101151.59;4998879;28;20039;-87
2021/11/05 03:37:23;;;;;;;103.20;28.08;;;;;;;5.51;100.00;101148.81;4971391;28;20041;-86
2021/11/05 03:40:00;;;;;;;88.47;28.45;;;;;;;5.50;100.00;101149.81;4983277;28;20041;-86
2021/11/05 03:42:26;;;;;;;103.55;31.55;;;;;;;5.54;100.00;101160.06;4989394;28;20387;-86
2021/11/05 03:44:52;;;;;;;104.93;29.20;;;;;;;5.52;100.00;101154.00;5019746;28;20042;-86
2021/11/05 03:47:19;;;;;;;93.43;27.33;;;;;;;5.45;100.00;101159.97;4986332;28;20038;-86
2021/11/05 03:49:58;;;;;;;104.25;26.52;;;;;;;5.41;100.00;101164.69;5000005;28;20494;-86
2021/11/05 03:52:23;;;;;;;118.23;36.23;;;;;;;5.47;100.00;101174.84;4988787;28;20046;-86
2021/11/05 03:54:52;;;;;;;88.88;25.52;;;;;;;5.39;100.00;101171.94;4989290;28;20704;-87
2021/11/05 03:57:26;;;;;;;95.33;26.53;;;;;;;5.39;100.00;101170.13;4972609;28;20035;-86
2021/11/05 03:59:53;;;;;;;98.47;29.23;;;;;;;5.38;100.00;101170.22;4994779;28;20042;-87
2021/11/05 04:02:22;;;;;;;98.30;32.75;;;;;;;5.43;100.00;101173.38;4965400;28;20042;-86
2021/11/05 04:04:57;;;;;;;104.93;33.13;;;;;;;5.45;100.00;101187.41;4960697;28;20038;-86
2021/11/05 04:07:24;;;;;;;101.90;34.70;;;;;;;5.47;100.00;101195.28;4968909;28;20047;-86
2021/11/05 04:09:51;;;;;;;84.93;25.83;;;;;;;5.35;100.00;101202.41;4969417;28;20050;-86
2021/11/05 04:12:21;;;;;;;89.90;30.90;;;;;;;5.31;100.00;101204.47;4996813;28;20081;-86
2021/11/05 04:14:49;;;;;;;80.47;25.58;;;;;;;5.22;100.00;101207.00;4991215;28;20054;-87
2021/11/05 04:17:16;;;;;;;91.93;31.40;;;;;;;5.27;100.00;101212.84;4950321;28;20527;-87
2021/11/05 04:19:44;;;;;;;86.43;29.70;;;;;;;5.24;100.00;101218.41;4945482;28;20522;-86
2021/11/05 04:22:12;;;;;;;107.43;34.92;;;;;;;5.22;100.00;101217.66;4964553;28;20043;-86
2021/11/05 04:24:44;;;;;;;82.27;26.27;;;;;;;5.13;100.00;101216.56;4962661;28;20046;-87
2021/11/05 04:27:10;;;;;;;95.10;31.60;;;;;;;5.14;100.00;101232.38;4974133;28;20784;-86
2021/11/05 04:29:36;;;;;;;93.63;29.60;;;;;;;5.17;100.00;101231.31;4982915;28;20121;-87
2021/11/05 04:32:04;;;;;;;86.55;26.92;;;;;;;5.15;100.00;101239.44;4986639;28;20181;-86
2021/11/05 04:34:30;;;;;;;85.28;32.13;;;;;;;5.18;100.00;101247.16;4987347;28;20549;-87
2021/11/05 04:37:04;;;;;;;81.53;27.70;;;;;;;5.16;100.00;101246.44;4989633;28;20379;-87
2021/11/05 04:39:30;;;;;;;83.10;28.90;;;;;;;5.18;100.00;101260.47;4981271;28;20035;-86
2021/11/05 04:42:03;;;;;;;93.50;31.17;;;;;;;5.22;100.00;101260.22;4966208;28;20287;-87
2021/11/05 04:44:29;;;;;;;80.63;26.92;;;;;;;5.16;100.00;101261.56;4978971;28;20064;-86
2021/11/05 04:46:55;;;;;;;104.13;34.63;;;;;;;5.22;100.00;101261.06;5004631;28;20066;-86
2021/11/05 04:49:22;;;;;;;89.85;30.20;;;;;;;5.23;100.00;101264.56;4969074;28;20053;-86
2021/11/05 04:52:02;;;;;;;94.93;34.75;;;;;;;5.23;100.00;101267.25;5018996;28;20084;-86
2021/11/05 04:54:30;;;;;;;95.15;32.63;;;;;;;5.21;100.00;101270.03;4959133;28;20046;-88
2021/11/05 04:57:03;;;;;;;80.78;28.13;;;;;;;5.10;100.00;101268.19;4968731;28;20069;-87
2021/11/05 04:59:29;;;;;;;93.53;33.42;;;;;;;5.15;100.00;101282.00;4984602;28;20049;-86
2021/11/05 05:02:00;;;;;;;87.43;29.70;;;;;;;5.11;100.00;101277.84;4981979;28;20034;-86
2021/11/05 05:04:26;;;;;;;99.78;36.75;;;;;;;5.20;100.00;101284.28;4984414;28;20086;-86
2021/11/05 05:07:01;;;;;;;89.32;28.48;;;;;;;5.14;100.00;101284.75;4985456;28;20038;-86
2021/11/05 05:09:31;;;;;;;97.53;36.05;;;;;;;5.15;100.00;101287.31;4986177;28;20042;-86
2021/11/05 05:12:04;;;;;;;89.85;29.33;;;;;;;5.04;100.00;101289.94;4981206;28;20104;-86
2021/11/05 05:14:33;;;;;;;87.80;29.98;;;;;;;5.06;100.00;101295.97;4979815;28;20058;-86
2021/11/05 05:17:02;;;;;;;88.55;27.45;;;;;;;5.05;100.00;101290.78;4960027;28;21189;-87
2021/11/05 05:19:34;;;;;;;90.47;36.22;;;;;;;5.14;100.00;101298.91;4968780;28;20039;-87
2021/11/05 05:22:04;;;;;;;99.22;37.13;;;;;;;5.17;100.00;101311.97;4948937;28;20050;-86
2021/11/05 05:24:30;;;;;;;97.07;32.80;;;;;;;5.17;100.00;101308.47;4971246;28;20053;-86
2021/11/05 05:27:02;;;;;;;99.63;33.63;;;;;;;5.14;100.00;101301.56;4965235;28;20039;-86
2021/11/05 05:29:30;;;;;;;110.50;32.45;;;;;;;5.11;100.00;101307.13;4967292;28;20173;-87
2021/11/05 05:31:55;;;;;;;109.68;39.25;;;;;;;5.16;100.00;101310.28;4973402;28;20034;-86
2021/11/05 05:34:22;;;;;;;137.15;37.17;;;;;;;5.15;100.00;101331.66;4981199;28;20041;-87
2021/11/05 05:36:54;;;;;;;102.57;32.83;;;;;;;5.12;100.00;101319.47;4982571;28;20050;-87
2021/11/05 05:39:21;;;;;;;151.57;41.95;;;;;;;5.16;100.00;101328.06;4971794;28;20047;-86
2021/11/05 05:41:49;;;;;;;127.78;43.60;;;;;;;5.23;100.00;101325.78;5008055;28;20092;-86
2021/11/05 05:44:15;;;;;;;128.55;35.58;;;;;;;5.18;100.00;101339.44;5002334;28;20047;-86
2021/11/05 05:46:41;;;;;;;150.65;41.25;;;;;;;5.16;100.00;101336.88;4989476;28;20072;-86
2021/11/05 05:49:06;;;;;;;137.07;38.83;;;;;;;5.18;100.00;101350.09;4958220;28;20438;-87
2021/11/05 05:51:33;;;;;;;112.47;35.75;;;;;;;5.18;100.00;101347.44;4968805;28;20114;-87
2021/11/05 05:54:00;;;;;;;130.88;40.58;;;;;;;5.20;100.00;101358.78;4989143;28;20053;-87
2021/11/05 05:56:26;;;;;;;109.40;35.75;;;;;;;5.18;100.00;101356.25;4987527;28;20046;-87
2021/11/05 05:58:52;;;;;;;116.38;35.90;;;;;;;5.12;100.00;101355.84;5002672;28;20038;-87
2021/11/05 06:01:17;;;;;;;122.57;40.53;;;;;;;5.21;100.00;101360.50;4966936;28;20373;-87
2021/11/05 06:03:44;;;;;;;106.00;35.42;;;;;;;5.16;100.00;101362.66;5000880;28;20046;-87
2021/11/05 06:06:17;;;;;;;104.93;37.13;;;;;;;5.15;100.00;101364.47;4975222;28;20054;-86
2021/11/05 06:08:44;;;;;;;117.35;39.28;;;;;;;5.19;100.00;101373.91;4966894;28;20122;-88
2021/11/05 06:11:16;;;;;;;92.80;32.00;;;;;;;5.17;100.00;101372.31;4993964;28;20100;-86
2021/11/05 06:13:41;;;;;;;98.60;35.38;;;;;;;5.16;100.00;101378.63;4997544;28;20042;-87
2021/11/05 06:16:08;;;;;;;106.60;41.20;;;;;;;5.21;100.00;101379.13;5022306;28;20049;-87
2021/11/05 06:18:34;;;;;;;121.57;44.85;;;;;;;5.26;100.00;101384.94;5006802;28;20145;-88
2021/11/05 06:20:59;;;;;;;103.43;43.65;;;;;;;5.21;100.00;101387.13;4974094;28;20122;-85
2021/11/05 06:23:42;;;;;;;116.40;41.33;;;;;;;5.24;100.00;101386.03;4942086;28;20182;-87
2021/11/05 06:26:08;;;;;;;105.95;40.22;;;;;;;5.24;100.00;101391.38;4964005;28;20035;-86
2021/11/05 06:28:39;;;;;;;111.18;39.63;;;;;;;5.21;100.00;101403.09;4961355;28;20057;-87
2021/11/05 06:31:08;;;;;;;118.97;43.65;;;;;;;5.23;100.00;101398.47;4968763;28;20043;-85
2021/11/05 06:33:35;;;;;;;123.93;47.30;;;;;;;5.26;100.00;101402.72;4991949;28;20042;-86
2021/11/05 06:36:10;;;;;;;106.85;42.65;;;;;;;5.22;100.00;101404.75;4964042;28;20038;-86
2021/11/05 06:38:47;;;;;;;126.97;50.53;;;;;;;5.25;100.00;101414.34;4980509;28;20081;-87
2021/11/05 06:41:13;;;;;;;104.85;41.38;;;;;;;5.23;100.00;101417.09;4967072;28;20057;-87
2021/11/05 06:43:40;;;;;;;130.93;49.92;;;;;;;5.25;100.00;101419.66;5009150;28;20039;-85
2021/11/05 06:46:05;;;;;;;116.90;47.70;;;;;;;5.26;100.00;101424.00;5012125;28;20046;-88
2021/11/05 06:48:33;;;;;;;137.52;51.58;;;;;;;5.27;100.00;101425.72;4991807;28;20041;-85
2021/11/05 06:51:05;;;;;;;140.85;47.25;;;;;;;5.24;100.00;101434.78;4985339;28;22287;-85
2021/11/05 06:53:30;;;;;;;149.18;49.83;;;;;;;5.25;100.00;101431.16;4979211;28;20045;-88
2021/11/05 06:55:56;;;;;;;143.75;48.80;;;;;;;5.21;100.00;101448.31;4996456;28;20423;-87
2021/11/05 06:58:21;;;;;;;156.52;46.30;;;;;;;5.16;100.00;101438.00;4977327;28;20555;-85
2021/11/05 07:00:49;;;;;;;164.70;42.85;;;;;;;5.16;100.00;101451.31;4962916;28;20097;-86
2021/11/05 07:03:17;;;;;;;173.82;47.80;;;;;;;5.12;100.00;101454.28;5019284;28;20081;-88
2021/11/05 07:05:44;;;;;;;169.48;46.35;;;;;;;5.17;100.00;101449.47;4963452;28;20039;-88
2021/11/05 07:08:09;;;;;;;163.88;46.78;;;;;;;5.17;100.00;101460.13;5017745;28;20046;-85
2021/11/05 07:10:36;;;;;;;156.35;43.50;;;;;;;5.14;100.00;101461.19;4969776;28;20545;-85
2021/11/05 07:13:02;;;;;;;141.95;45.03;;;;;;;5.18;100.00;101467.16;4973184;28;20050;-86
2021/11/05 07:15:28;;;;;;;113.57;38.72;;;;;;;5.14;100.00;101465.69;4962841;28;20138;-85
2021/11/05 07:17:54;;;;;;;113.13;41.40;;;;;;;5.12;100.00;101476.44;4949294;28;20492;-85
2021/11/05 07:20:26;;;;;;;112.25;36.58;;;;;;;5.09;100.00;101482.00;4982127;28;20057;-87
2021/11/05 07:22:52;;;;;;;101.43;34.85;;;;;;;5.07;100.00;101486.56;4977343;28;20118;-87
2021/11/05 07:25:18;;;;;;;137.65;41.20;;;;;;;5.11;100.00;101497.81;4987551;28;20117;-85
2021/11/05 07:27:51;;;;;;;110.20;40.55;;;;;;;5.09;100.00;101505.94;4984541;28;20097;-88
2021/11/05 07:30:19;;;;;;;114.97;41.08;;;;;;;5.09;100.00;101505.94;5003424;28;20034;-86
2021/11/05 07:32:47;;;;;;;113.10;37.15;;;;;;;5.09;100.00;101507.72;4983050;28;20730;-86
2021/11/05 07:35:23;;;;;;;99.07;37.58;;;;;;;5.11;100.00;101511.13;4984450;28;20569;-86
2021/11/05 07:37:50;;;;;;;105.63;43.78;;;;;;;5.12;100.00;101521.69;4963653;28;20039;-87
2021/11/05 07:40:18;;;;;;;107.93;39.97;;;;;;;5.16;100.00;101520.47;4982760;28;20774;-86
2021/11/05 07:42:52;;;;;;;110.40;38.83;;;;;;;5.16;100.00;101528.47;4996594;28;20074;-86
2021/11/05 07:45:21;;;;;;;96.65;41.63;;;;;;;5.20;100.00;101524.59;4976439;28;20539;-89
2021/11/05 07:47:48;;;;;;;98.90;38.13;;;;;;;5.18;100.00;101523.03;4980364;28;20065;-88
2021/11/05 07:50:17;;;;;;;103.38;39.60;;;;;;;5.26;100.00;101530.44;4974277;28;20100;-86
2021/11/05 07:52:44;;;;;;;98.68;38.50;;;;;;;5.25;100.00;101534.94;4984807;28;20038;-87
2021/11/05 07:55:10;;;;;;;78.20;34.22;;;;;;;5.20;100.00;101529.09;5019548;28;20058;-86
2021/11/05 07:57:37;;;;;;;88.10;32.92;;;;;;;5.19;100.00;101544.22;4992655;28;20109;-84
2021/11/05 08:00:08;;;;;;;84.97;37.08;;;;;;;5.28;100.00;101548.00;5001324;28;20052;-87
2021/11/05 08:02:35;;;;;;;83.80;36.85;;;;;;;5.22;100.00;101548.47;5005204;28;20038;-84
2021/11/05 08:05:04;;;;;;;87.68;37.00;;;;;;;5.25;100.00;101547.41;4983939;28;20052;-86
2021/11/05 08:07:31;;;;;;;92.13;37.13;;;;;;;5.27;100.00;101556.13;4993206;28;20459;-86
2021/11/05 08:09:57;;;;;;;83.75;37.05;;;;;;;5.30;100.00;101562.06;4975037;28;20100;-86
2021/11/05 08:12:22;;;;;;;81.68;33.53;;;;;;;5.31;100.00;101557.59;4998830;28;20054;-85
2021/11/05 08:14:49;;;;;;;73.95;34.63;;;;;;;5.35;100.00;101567.03;4988825;28;20062;-86
2021/11/05 08:17:14;;;;;;;78.00;35.00;;;;;;;5.36;100.00;101571.41;4982434;28;20043;-86
2021/11/05 08:19:42;;;;;;;70.82;36.35;;;;;;;5.38;100.00;101565.03;4962881;28;20109;-86
2021/11/05 08:22:08;;;;;;;75.82;31.73;;;;;;;5.34;100.00;101568.84;4976209;28;20113;-88
2021/11/05 08:24:37;;;;;;;78.47;34.45;;;;;;;5.37;100.00;101568.63;4965630;28;20030;-87
2021/11/05 08:27:04;;;;;;;78.15;33.83;;;;;;;5.40;100.00;101570.22;4951279;28;20042;-85
2021/11/05 08:29:29;;;;;;;77.93;35.58;;;;;;;5.37;100.00;101573.94;4972033;28;20054;-85
2021/11/05 08:32:00;;;;;;;70.45;30.55;;;;;;;5.32;100.00;101576.13;4961362;28;20050;-87
2021/11/05 08:34:26;;;;;;;67.28;28.73;;;;;;;5.33;100.00;101582.28;4971393;28;20039;-87
2021/11/05 08:36:53;;;;;;;78.53;36.67;;;;;;;5.39;100.00;101584.50;4982353;28;20543;-86
2021/11/05 08:39:19;;;;;;;78.88;35.17;;;;;;;5.43;100.00;101588.63;4998697;28;20038;-84
2021/11/05 08:41:47;;;;;;;85.40;37.35;;;;;;;5.51;100.00;101594.25;4985707;28;20042;-85
2021/11/05 08:44:14;;;;;;;82.60;36.90;;;;;;;5.60;100.00;101596.22;4968351;28;20042;-87
2021/11/05 08:46:43;;;;;;;72.15;36.53;;;;;;;5.63;100.00;101598.66;4988367;28;20034;-84
2021/11/05 08:49:11;;;;;;;75.65;33.50;;;;;;;5.61;100.00;101605.94;4977749;28;20057;-85
2021/11/05 08:51:41;;;;;;;74.70;31.48;;;;;;;5.64;100.00;101618.19;4986292;28;20039;-85
2021/11/05 08:54:08;;;;;;;72.60;37.40;;;;;;;5.74;100.00;101615.69;4986722;28;20089;-85
2021/11/05 08:56:39;;;;;;;70.05;35.70;;;;;;;5.78;100.00;101619.81;4972509;28;20039;-86
2021/11/05 08:59:05;;;;;;;73.82;37.67;;;;;;;5.82;100.00;101623.97;4981101;28;20047;-87
2021/11/05 09:01:35;;;;;;;72.43;33.13;;;;;;;5.78;100.00;101628.69;4983588;28;20042;-85
2021/11/05 09:04:01;;;;;;;73.68;33.88;;;;;;;5.79;100.00;101632.19;4998557;28;20057;-85
2021/11/05 09:06:30;;;;;;;74.88;34.58;;;;;;;5.81;100.00;101630.22;4998619;28;20038;-85
2021/11/05 09:08:56;;;;;;;70.45;37.83;;;;;;;5.88;100.00;101637.69;5005863;28;20042;-87
2021/11/05 09:11:23;;;;;;;73.28;35.88;;;;;;;5.93;100.00;101640.03;5001784;28;20050;-85
2021/11/05 09:13:54;;;;;;;76.78;34.30;;;;;;;6.01;100.00;101643.00;4984055;28;20034;-86
2021/11/05 09:16:19;;;;;;;73.82;38.17;;;;;;;6.08;100.00;101643.38;5000588;28;20042;-85
2021/11/05 09:18:45;;;;;;;68.60;34.15;;;;;;;6.08;100.00;101648.72;4975685;28;20041;-85
2021/11/05 09:21:16;;;;;;;68.75;33.80;;;;;;;6.12;100.00;101650.16;4977099;28;20125;-85
2021/11/05 09:23:42;;;;;;;69.93;34.88;;;;;;;6.16;100.00;101651.66;4978639;28;20062;-87
2021/11/05 09:26:08;;;;;;;70.95;37.45;;;;;;;6.23;100.00;101658.22;4984868;28;20034;-86
2021/11/05 09:28:35;;;;;;;71.18;32.45;;;;;;;6.19;100.00;101655.91;4979698;28;20045;-88
2021/11/05 09:31:03;;;;;;;64.50;29.10;;;;;;;6.18;100.00;101659.53;5012302;28;20098;-87
2021/11/05 09:33:31;;;;;;;59.75;31.52;;;;;;;6.17;100.00;101663.16;5000417;28;20042;-87
2021/11/05 09:35:57;;;;;;;73.30;31.05;;;;;;;6.12;100.00;101662.66;4981140;28;20069;-85
2021/11/05 09:38:22;;;;;;;64.63;34.88;;;;;;;6.24;100.00;101659.94;4972408;28;20046;-88
2021/11/05 09:41:05;;;;;;;71.47;34.45;;;;;;;6.32;100.00;101678.84;4981872;28;20042;-86
2021/11/05 09:43:33;;;;;;;58.72;29.27;;;;;;;6.29;100.00;101671.06;4981168;28;20039;-88
2021/11/05 09:46:00;;;;;;;61.65;29.83;;;;;;;6.25;100.00;101682.09;4982398;28;20050;-86
2021/11/05 09:48:27;;;;;;;61.10;30.40;;;;;;;6.27;100.00;101678.34;4965383;28;20065;-86
2021/11/05 09:50:52;;;;;;;61.03;31.48;;;;;;;6.44;100.00;101694.88;4978574;28;20030;-87
2021/11/05 09:53:26;;;;;;;57.15;30.88;;;;;;;6.48;100.00;101691.88;4977452;28;20048;-87
2021/11/05 09:55:52;;;;;;;55.83;33.30;;;;;;;6.46;100.00;101690.28;4981343;28;20134;-84
2021/11/05 09:58:19;;;;;;;61.22;31.38;;;;;;;6.52;100.00;101704.00;4961888;28;20050;-89
2021/11/05 10:00:47;;;;;;;56.65;33.13;;;;;;;6.59;100.00;101707.09;4983326;28;20046;-86
2021/11/05 10:03:12;;;;;;;54.35;32.13;;;;;;;6.62;100.00;101705.97;4981110;28;20403;-88
2021/11/05 10:05:39;;;;;;;58.15;33.95;;;;;;;6.64;100.00;101706.72;4982101;28;20113;-86
2021/11/05 10:08:11;;;;;;;55.63;29.95;;;;;;;6.64;100.00;101704.06;4996982;28;20243;-85
2021/11/05 10:10:41;;;;;;;54.35;30.00;;;;;;;6.66;100.00;101712.78;4969745;28;20049;-88
2021/11/05 10:13:12;;;;;;;56.35;32.10;;;;;;;6.76;100.00;101713.78;4982540;28;20052;-87
2021/11/05 10:15:47;;;;;;;55.22;34.08;;;;;;;6.87;100.00;101726.31;4999007;28;20531;-86
2021/11/05 10:18:23;;;;;;;53.28;34.35;;;;;;;6.91;100.00;101717.97;4968577;28;20053;-88
2021/11/05 10:21:15;;;;;;;52.45;28.42;;;;;;;6.85;100.00;101725.56;4985082;28;20625;-85
2021/11/05 10:23:44;;;;;;;50.90;28.38;;;;;;;6.89;100.00;101730.56;4994487;28;20049;-84
2021/11/05 10:26:21;;;;;;;;;;;;;;;6.91;100.00;101730.47;4999643;28;20129;-88
2021/11/05 10:28:47;;;;;;;50.63;29.95;;;;;;;6.90;100.00;101732.25;4985935;28;19992;-87
2021/11/05 10:31:15;;;;;;;47.33;31.02;;;;;;;7.02;100.00;101730.50;4987759;28;20042;-89
2021/11/05 10:33:45;;;;;;;44.80;28.52;;;;;;;7.11;100.00;101728.91;4986782;28;20045;-87
2021/11/05 10:36:16;;;;;;;47.13;27.40;;;;;;;7.14;100.00;101729.53;4967077;28;20049;-85
2021/11/05 10:38:46;;;;;;;44.33;28.15;;;;;;;7.24;100.00;101735.00;4967390;28;20034;-87
2021/11/05 10:41:17;;;;;;;40.45;27.77;;;;;;;7.33;100.00;101725.41;4965955;28;20038;-87
2021/11/05 10:43:47;;;;;;;42.25;28.40;;;;;;;7.43;100.00;101734.41;4974221;28;20907;-89
2021/11/05 10:46:33;;;;;;;39.20;26.92;;;;;;;7.52;100.00;101736.34;4965272;28;20089;-86
2021/11/05 10:49:05;;;;;;;33.55;21.90;;;;;;;7.58;100.00;101735.84;4999856;28;20050;-86
2021/11/05 10:51:31;;;;;;;33.05;22.67;;;;;;;7.61;100.00;101746.31;4978990;28;20535;-86
2021/11/05 10:53:58;;;;;;;35.78;23.65;;;;;;;7.72;100.00;101753.47;4984224;28;20053;-86
2021/11/05 10:56:26;;;;;;;32.42;23.42;;;;;;;7.68;100.00;101757.34;4956688;28;20035;-88
2021/11/05 10:59:04;;;;;;;32.75;23.33;;;;;;;7.73;100.00;101749.81;4975717;28;20039;-86
2021/11/05 11:01:41;;;;;;;36.58;23.67;;;;;;;7.82;100.00;101759.75;4978176;28;20043;-86
2021/11/05 11:04:13;;;;;;;29.75;21.08;;;;;;;7.81;100.00;101755.41;5014430;28;20097;-86
2021/11/05 11:06:47;;;;;;;34.17;21.33;;;;;;;7.85;100.00;101764.00;4986267;28;20064;-86
2021/11/05 11:09:19;;;;;;;28.42;21.65;;;;;;;7.94;100.00;101760.63;4975178;28;20068;-87
2021/11/05 11:11:49;;;;;;;33.33;23.67;;;;;;;8.05;100.00;101757.06;4984018;28;20462;-87
2021/11/05 11:14:20;;;;;;;30.65;20.42;;;;;;;8.08;100.00;101765.69;4999307;28;20049;-86